sensor_id;sensor_type;location;lat;lon;timestamp;P1;durP1;ratioP1;P2;durP2;ratioP2
16977;SDS011;8605;52.548;4.918;2022-12-07T00:04:43;2.17;;;0.97;;
16977;SDS011;8605;52.548;4.918;2022-12-07T00:10:06;4.27;;;0.80;;
16977;SDS011;8605;52.548;4.918;2022-12-07T00:15:30;1.23;;;0.70;;
16977;SDS011;8605;52.548;4.918;2022-12-07T00:20:54;3.23;;;0.80;;
16977;SDS011;8605;52.548;4.918;2022-12-07T00:26:22;5.33;;;0.70;;
16977;SDS011;8605;52.548;4.918;2022-12-07T00:31:46;1.30;;;0.63;;
16977;SDS011;8605;52.548;4.918;2022-12-07T00:37:11;0.60;;;0.53;;
16977;SDS011;8605;52.548;4.918;2022-12-07T00:42:34;4.00;;;0.90;;
16977;SDS011;8605;52.548;4.918;2022-12-07T00:47:57;0.97;;;0.47;;
16977;SDS011;8605;52.548;4.918;2022-12-07T00:53:22;1.53;;;0.63;;
16977;SDS011;8605;52.548;4.918;2022-12-07T00:58:49;3.43;;;1.07;;
16977;SDS011;8605;52.548;4.918;2022-12-07T01:04:13;0.57;;;0.50;;
16977;SDS011;8605;52.548;4.918;2022-12-07T01:09:37;4.33;;;0.97;;
16977;SDS011;8605;52.548;4.918;2022-12-07T01:15:00;2.23;;;0.80;;
16977;SDS011;8605;52.548;4.918;2022-12-07T01:20:23;2.37;;;0.70;;
16977;SDS011;8605;52.548;4.918;2022-12-07T01:25:54;1.53;;;0.80;;
16977;SDS011;8605;52.548;4.918;2022-12-07T01:31:18;3.40;;;0.83;;
16977;SDS011;8605;52.548;4.918;2022-12-07T01:36:43;1.37;;;0.60;;
16977;SDS011;8605;52.548;4.918;2022-12-07T01:42:09;0.90;;;0.60;;
16977;SDS011;8605;52.548;4.918;2022-12-07T01:47:32;2.43;;;0.73;;
16977;SDS011;8605;52.548;4.918;2022-12-07T01:52:55;8.83;;;1.97;;
16977;SDS011;8605;52.548;4.918;2022-12-07T01:58:20;1.97;;;0.90;;
16977;SDS011;8605;52.548;4.918;2022-12-07T02:03:44;2.83;;;0.67;;
16977;SDS011;8605;52.548;4.918;2022-12-07T02:09:07;3.57;;;0.93;;
16977;SDS011;8605;52.548;4.918;2022-12-07T02:14:32;2.53;;;0.80;;
16977;SDS011;8605;52.548;4.918;2022-12-07T02:20:00;1.63;;;0.70;;
16977;SDS011;8605;52.548;4.918;2022-12-07T02:25:53;7.67;;;1.37;;
16977;SDS011;8605;52.548;4.918;2022-12-07T02:31:27;5.80;;;1.13;;
16977;SDS011;8605;52.548;4.918;2022-12-07T02:36:52;0.93;;;0.60;;
16977;SDS011;8605;52.548;4.918;2022-12-07T02:42:19;0.77;;;0.63;;
16977;SDS011;8605;52.548;4.918;2022-12-07T02:47:48;2.63;;;0.77;;
16977;SDS011;8605;52.548;4.918;2022-12-07T02:53:33;3.87;;;0.90;;
16977;SDS011;8605;52.548;4.918;2022-12-07T02:59:00;0.63;;;0.50;;
16977;SDS011;8605;52.548;4.918;2022-12-07T03:04:30;2.57;;;1.00;;
16977;SDS011;8605;52.548;4.918;2022-12-07T03:10:00;2.00;;;0.83;;
16977;SDS011;8605;52.548;4.918;2022-12-07T03:15:28;3.07;;;0.90;;
16977;SDS011;8605;52.548;4.918;2022-12-07T03:20:55;2.13;;;0.70;;
16977;SDS011;8605;52.548;4.918;2022-12-07T03:26:22;1.73;;;1.13;;
16977;SDS011;8605;52.548;4.918;2022-12-07T03:31:50;2.57;;;0.60;;
16977;SDS011;8605;52.548;4.918;2022-12-07T03:37:19;5.43;;;1.10;;
16977;SDS011;8605;52.548;4.918;2022-12-07T03:42:45;2.77;;;0.87;;
16977;SDS011;8605;52.548;4.918;2022-12-07T03:48:12;2.73;;;1.03;;
16977;SDS011;8605;52.548;4.918;2022-12-07T03:53:44;3.13;;;1.27;;
16977;SDS011;8605;52.548;4.918;2022-12-07T03:59:09;1.73;;;0.73;;
16977;SDS011;8605;52.548;4.918;2022-12-07T04:04:33;7.53;;;1.43;;
16977;SDS011;8605;52.548;4.918;2022-12-07T04:09:58;5.03;;;0.83;;
16977;SDS011;8605;52.548;4.918;2022-12-07T04:15:22;6.80;;;0.93;;
16977;SDS011;8605;52.548;4.918;2022-12-07T04:20:45;2.50;;;1.20;;
16977;SDS011;8605;52.548;4.918;2022-12-07T04:26:10;2.97;;;0.90;;
16977;SDS011;8605;52.548;4.918;2022-12-07T04:31:33;3.33;;;1.73;;
16977;SDS011;8605;52.548;4.918;2022-12-07T04:36:57;2.63;;;1.23;;
16977;SDS011;8605;52.548;4.918;2022-12-07T04:42:21;4.13;;;2.10;;
16977;SDS011;8605;52.548;4.918;2022-12-07T04:47:44;5.87;;;1.23;;
16977;SDS011;8605;52.548;4.918;2022-12-07T04:53:08;1.73;;;0.60;;
16977;SDS011;8605;52.548;4.918;2022-12-07T04:58:32;5.77;;;0.77;;
16977;SDS011;8605;52.548;4.918;2022-12-07T05:03:55;1.37;;;0.80;;
16977;SDS011;8605;52.548;4.918;2022-12-07T05:09:18;12.57;;;1.30;;
16977;SDS011;8605;52.548;4.918;2022-12-07T05:14:43;2.50;;;1.00;;
16977;SDS011;8605;52.548;4.918;2022-12-07T05:20:06;0.57;;;0.57;;
16977;SDS011;8605;52.548;4.918;2022-12-07T05:25:30;4.33;;;0.70;;
16977;SDS011;8605;52.548;4.918;2022-12-07T05:30:55;1.77;;;0.87;;
16977;SDS011;8605;52.548;4.918;2022-12-07T05:36:20;1.43;;;0.60;;
16977;SDS011;8605;52.548;4.918;2022-12-07T05:41:44;1.40;;;0.77;;
16977;SDS011;8605;52.548;4.918;2022-12-07T05:47:26;2.27;;;0.67;;
16977;SDS011;8605;52.548;4.918;2022-12-07T05:52:49;1.97;;;0.87;;
16977;SDS011;8605;52.548;4.918;2022-12-07T05:58:12;1.97;;;1.43;;
16977;SDS011;8605;52.548;4.918;2022-12-07T06:04:05;0.33;;;0.33;;
16977;SDS011;8605;52.548;4.918;2022-12-07T06:09:28;6.07;;;1.30;;
16977;SDS011;8605;52.548;4.918;2022-12-07T06:14:52;0.90;;;0.70;;
16977;SDS011;8605;52.548;4.918;2022-12-07T06:20:16;2.63;;;0.90;;
16977;SDS011;8605;52.548;4.918;2022-12-07T06:25:40;4.00;;;1.10;;
16977;SDS011;8605;52.548;4.918;2022-12-07T06:31:08;0.80;;;0.63;;
16977;SDS011;8605;52.548;4.918;2022-12-07T06:36:36;1.13;;;0.70;;
16977;SDS011;8605;52.548;4.918;2022-12-07T06:41:59;1.00;;;0.80;;
16977;SDS011;8605;52.548;4.918;2022-12-07T06:47:22;2.43;;;0.80;;
16977;SDS011;8605;52.548;4.918;2022-12-07T06:53:02;1.57;;;0.50;;
16977;SDS011;8605;52.548;4.918;2022-12-07T06:58:26;0.63;;;0.60;;
16977;SDS011;8605;52.548;4.918;2022-12-07T07:03:49;2.47;;;0.73;;
16977;SDS011;8605;52.548;4.918;2022-12-07T07:09:13;4.97;;;0.93;;
16977;SDS011;8605;52.548;4.918;2022-12-07T07:14:36;1.87;;;0.70;;
16977;SDS011;8605;52.548;4.918;2022-12-07T07:20:00;1.17;;;0.60;;
16977;SDS011;8605;52.548;4.918;2022-12-07T07:25:24;4.40;;;1.03;;
16977;SDS011;8605;52.548;4.918;2022-12-07T07:30:48;2.43;;;0.90;;
16977;SDS011;8605;52.548;4.918;2022-12-07T07:36:11;0.93;;;0.80;;
16977;SDS011;8605;52.548;4.918;2022-12-07T07:41:35;2.03;;;0.90;;
16977;SDS011;8605;52.548;4.918;2022-12-07T07:46:59;3.70;;;2.03;;
16977;SDS011;8605;52.548;4.918;2022-12-07T07:52:22;1.77;;;1.13;;
16977;SDS011;8605;52.548;4.918;2022-12-07T07:57:46;4.47;;;0.93;;
16977;SDS011;8605;52.548;4.918;2022-12-07T08:03:15;3.50;;;0.73;;
16977;SDS011;8605;52.548;4.918;2022-12-07T08:08:38;7.90;;;1.30;;
16977;SDS011;8605;52.548;4.918;2022-12-07T08:14:03;2.37;;;0.97;;
16977;SDS011;8605;52.548;4.918;2022-12-07T08:19:26;1.30;;;0.57;;
16977;SDS011;8605;52.548;4.918;2022-12-07T08:24:49;1.63;;;0.90;;
16977;SDS011;8605;52.548;4.918;2022-12-07T08:30:14;2.83;;;2.00;;
16977;SDS011;8605;52.548;4.918;2022-12-07T08:35:37;2.27;;;0.80;;
16977;SDS011;8605;52.548;4.918;2022-12-07T08:41:01;3.13;;;0.90;;
16977;SDS011;8605;52.548;4.918;2022-12-07T08:46:26;6.03;;;1.00;;
16977;SDS011;8605;52.548;4.918;2022-12-07T08:51:51;2.43;;;1.07;;
16977;SDS011;8605;52.548;4.918;2022-12-07T08:57:14;4.50;;;1.10;;
16977;SDS011;8605;52.548;4.918;2022-12-07T09:02:39;2.10;;;0.80;;
16977;SDS011;8605;52.548;4.918;2022-12-07T09:08:03;4.33;;;0.90;;
16977;SDS011;8605;52.548;4.918;2022-12-07T09:13:26;1.60;;;1.33;;
16977;SDS011;8605;52.548;4.918;2022-12-07T09:18:51;2.37;;;1.30;;
16977;SDS011;8605;52.548;4.918;2022-12-07T09:24:14;3.47;;;1.10;;
16977;SDS011;8605;52.548;4.918;2022-12-07T09:29:37;4.20;;;1.00;;
16977;SDS011;8605;52.548;4.918;2022-12-07T09:35:01;1.70;;;0.80;;
16977;SDS011;8605;52.548;4.918;2022-12-07T09:40:25;1.70;;;1.00;;
16977;SDS011;8605;52.548;4.918;2022-12-07T09:45:50;4.37;;;1.27;;
16977;SDS011;8605;52.548;4.918;2022-12-07T09:51:17;9.53;;;1.03;;
16977;SDS011;8605;52.548;4.918;2022-12-07T09:56:45;1.60;;;1.00;;
16977;SDS011;8605;52.548;4.918;2022-12-07T10:02:19;5.70;;;1.27;;
16977;SDS011;8605;52.548;4.918;2022-12-07T10:07:48;0.83;;;0.83;;
16977;SDS011;8605;52.548;4.918;2022-12-07T10:13:12;1.00;;;0.70;;
16977;SDS011;8605;52.548;4.918;2022-12-07T10:18:36;1.50;;;0.80;;
16977;SDS011;8605;52.548;4.918;2022-12-07T10:24:02;1.33;;;1.00;;
16977;SDS011;8605;52.548;4.918;2022-12-07T10:29:28;6.70;;;1.60;;
16977;SDS011;8605;52.548;4.918;2022-12-07T10:34:54;2.27;;;1.13;;
16977;SDS011;8605;52.548;4.918;2022-12-07T10:40:42;15.33;;;1.70;;
16977;SDS011;8605;52.548;4.918;2022-12-07T10:46:17;6.13;;;1.13;;
16977;SDS011;8605;52.548;4.918;2022-12-07T10:51:51;4.23;;;1.53;;
16977;SDS011;8605;52.548;4.918;2022-12-07T11:03:06;7.83;;;1.90;;
16977;SDS011;8605;52.548;4.918;2022-12-07T11:08:45;4.50;;;0.80;;
16977;SDS011;8605;52.548;4.918;2022-12-07T11:14:17;4.57;;;1.00;;
16977;SDS011;8605;52.548;4.918;2022-12-07T11:19:47;1.53;;;0.90;;
16977;SDS011;8605;52.548;4.918;2022-12-07T11:25:17;4.57;;;1.20;;
16977;SDS011;8605;52.548;4.918;2022-12-07T11:30:52;3.83;;;1.23;;
16977;SDS011;8605;52.548;4.918;2022-12-07T11:36:28;1.83;;;0.73;;
16977;SDS011;8605;52.548;4.918;2022-12-07T11:41:56;2.53;;;1.00;;
16977;SDS011;8605;52.548;4.918;2022-12-07T11:47:27;6.90;;;1.37;;
16977;SDS011;8605;52.548;4.918;2022-12-07T11:52:54;3.07;;;0.80;;
16977;SDS011;8605;52.548;4.918;2022-12-07T11:58:23;3.07;;;0.80;;
16977;SDS011;8605;52.548;4.918;2022-12-07T12:04:01;1.53;;;1.33;;
16977;SDS011;8605;52.548;4.918;2022-12-07T12:09:09;1.87;;;0.90;;
16977;SDS011;8605;52.548;4.918;2022-12-07T12:14:37;5.30;;;1.83;;
16977;SDS011;8605;52.548;4.918;2022-12-07T12:19:58;1.73;;;0.90;;
16977;SDS011;8605;52.548;4.918;2022-12-07T12:25:24;4.77;;;2.20;;
16977;SDS011;8605;52.548;4.918;2022-12-07T12:31:04;0.90;;;0.53;;
16977;SDS011;8605;52.548;4.918;2022-12-07T12:42:05;0.57;;;0.47;;
16977;SDS011;8605;52.548;4.918;2022-12-07T12:52:49;4.43;;;1.10;;
16977;SDS011;8605;52.548;4.918;2022-12-07T12:58:21;2.40;;;0.90;;
16977;SDS011;8605;52.548;4.918;2022-12-07T13:03:32;1.40;;;0.87;;
16977;SDS011;8605;52.548;4.918;2022-12-07T13:08:37;2.07;;;0.80;;
16977;SDS011;8605;52.548;4.918;2022-12-07T13:13:43;2.20;;;0.77;;
16977;SDS011;8605;52.548;4.918;2022-12-07T13:18:46;5.20;;;1.73;;
16977;SDS011;8605;52.548;4.918;2022-12-07T13:23:54;2.47;;;0.90;;
16977;SDS011;8605;52.548;4.918;2022-12-07T13:29:04;2.50;;;1.57;;
16977;SDS011;8605;52.548;4.918;2022-12-07T13:34:28;6.30;;;2.17;;
16977;SDS011;8605;52.548;4.918;2022-12-07T13:39:34;3.27;;;1.27;;
16977;SDS011;8605;52.548;4.918;2022-12-07T13:44:39;3.80;;;1.13;;
16977;SDS011;8605;52.548;4.918;2022-12-07T13:49:46;5.23;;;1.53;;
16977;SDS011;8605;52.548;4.918;2022-12-07T13:54:57;4.83;;;1.60;;
16977;SDS011;8605;52.548;4.918;2022-12-07T14:00:03;9.37;;;2.20;;
16977;SDS011;8605;52.548;4.918;2022-12-07T14:05:08;1.80;;;1.07;;
16977;SDS011;8605;52.548;4.918;2022-12-07T14:10:23;1.07;;;0.80;;
16977;SDS011;8605;52.548;4.918;2022-12-07T14:15:28;1.23;;;0.63;;
16977;SDS011;8605;52.548;4.918;2022-12-07T14:20:33;5.10;;;1.97;;
16977;SDS011;8605;52.548;4.918;2022-12-07T14:25:45;3.33;;;0.90;;
16977;SDS011;8605;52.548;4.918;2022-12-07T14:30:52;8.90;;;1.70;;
16977;SDS011;8605;52.548;4.918;2022-12-07T14:35:55;0.93;;;0.63;;
16977;SDS011;8605;52.548;4.918;2022-12-07T14:41:01;1.47;;;1.00;;
16977;SDS011;8605;52.548;4.918;2022-12-07T14:46:17;1.30;;;0.47;;
16977;SDS011;8605;52.548;4.918;2022-12-07T14:51:21;2.10;;;1.33;;
16977;SDS011;8605;52.548;4.918;2022-12-07T14:56:45;4.43;;;1.43;;
16977;SDS011;8605;52.548;4.918;2022-12-07T15:01:50;5.27;;;1.60;;
16977;SDS011;8605;52.548;4.918;2022-12-07T15:06:57;3.53;;;1.30;;
16977;SDS011;8605;52.548;4.918;2022-12-07T15:12:01;0.80;;;0.80;;
16977;SDS011;8605;52.548;4.918;2022-12-07T15:17:05;5.43;;;1.47;;
16977;SDS011;8605;52.548;4.918;2022-12-07T15:22:11;2.97;;;1.60;;
16977;SDS011;8605;52.548;4.918;2022-12-07T15:27:15;3.83;;;1.40;;
16977;SDS011;8605;52.548;4.918;2022-12-07T15:32:18;2.83;;;1.60;;
16977;SDS011;8605;52.548;4.918;2022-12-07T15:37:21;9.77;;;2.17;;
16977;SDS011;8605;52.548;4.918;2022-12-07T15:42:25;8.13;;;3.47;;
16977;SDS011;8605;52.548;4.918;2022-12-07T15:47:28;5.03;;;2.73;;
16977;SDS011;8605;52.548;4.918;2022-12-07T15:52:31;4.20;;;2.17;;
16977;SDS011;8605;52.548;4.918;2022-12-07T15:57:35;3.43;;;1.50;;
16977;SDS011;8605;52.548;4.918;2022-12-07T16:02:39;2.30;;;0.90;;
16977;SDS011;8605;52.548;4.918;2022-12-07T16:07:42;1.20;;;0.70;;
16977;SDS011;8605;52.548;4.918;2022-12-07T16:12:49;1.13;;;0.50;;
16977;SDS011;8605;52.548;4.918;2022-12-07T16:17:52;0.70;;;0.60;;
16977;SDS011;8605;52.548;4.918;2022-12-07T16:22:56;11.37;;;2.33;;
16977;SDS011;8605;52.548;4.918;2022-12-07T16:28:01;2.13;;;1.00;;
16977;SDS011;8605;52.548;4.918;2022-12-07T16:33:04;5.00;;;1.40;;
16977;SDS011;8605;52.548;4.918;2022-12-07T16:38:07;3.37;;;0.97;;
16977;SDS011;8605;52.548;4.918;2022-12-07T16:43:12;1.30;;;0.80;;
16977;SDS011;8605;52.548;4.918;2022-12-07T16:48:16;3.33;;;0.93;;
16977;SDS011;8605;52.548;4.918;2022-12-07T16:53:20;8.80;;;1.20;;
16977;SDS011;8605;52.548;4.918;2022-12-07T16:58:24;1.13;;;1.03;;
16977;SDS011;8605;52.548;4.918;2022-12-07T17:03:27;1.80;;;1.43;;
16977;SDS011;8605;52.548;4.918;2022-12-07T17:08:31;3.90;;;1.60;;
16977;SDS011;8605;52.548;4.918;2022-12-07T17:13:35;8.37;;;1.57;;
16977;SDS011;8605;52.548;4.918;2022-12-07T17:18:56;2.93;;;1.27;;
16977;SDS011;8605;52.548;4.918;2022-12-07T17:23:59;2.70;;;1.40;;
16977;SDS011;8605;52.548;4.918;2022-12-07T17:29:03;6.83;;;1.63;;
16977;SDS011;8605;52.548;4.918;2022-12-07T17:34:08;3.77;;;1.90;;
16977;SDS011;8605;52.548;4.918;2022-12-07T17:39:13;3.37;;;1.20;;
16977;SDS011;8605;52.548;4.918;2022-12-07T17:44:19;1.93;;;0.77;;
16977;SDS011;8605;52.548;4.918;2022-12-07T17:49:22;2.17;;;0.80;;
16977;SDS011;8605;52.548;4.918;2022-12-07T17:54:26;2.37;;;1.53;;
16977;SDS011;8605;52.548;4.918;2022-12-07T17:59:30;3.67;;;1.13;;
16977;SDS011;8605;52.548;4.918;2022-12-07T18:04:33;2.93;;;1.13;;
16977;SDS011;8605;52.548;4.918;2022-12-07T18:09:36;1.93;;;1.23;;
16977;SDS011;8605;52.548;4.918;2022-12-07T18:14:40;3.70;;;1.33;;
16977;SDS011;8605;52.548;4.918;2022-12-07T18:19:43;2.23;;;1.30;;
16977;SDS011;8605;52.548;4.918;2022-12-07T18:24:46;5.30;;;1.50;;
16977;SDS011;8605;52.548;4.918;2022-12-07T18:29:50;2.13;;;0.93;;
16977;SDS011;8605;52.548;4.918;2022-12-07T18:34:54;4.13;;;1.07;;
16977;SDS011;8605;52.548;4.918;2022-12-07T18:39:57;1.13;;;0.97;;
16977;SDS011;8605;52.548;4.918;2022-12-07T18:45:01;1.30;;;0.60;;
16977;SDS011;8605;52.548;4.918;2022-12-07T18:50:05;2.57;;;2.20;;
16977;SDS011;8605;52.548;4.918;2022-12-07T18:55:09;5.10;;;0.90;;
16977;SDS011;8605;52.548;4.918;2022-12-07T19:00:13;0.70;;;0.47;;
16977;SDS011;8605;52.548;4.918;2022-12-07T19:05:17;2.90;;;0.87;;
16977;SDS011;8605;52.548;4.918;2022-12-07T19:10:20;0.93;;;0.70;;
16977;SDS011;8605;52.548;4.918;2022-12-07T19:15:24;8.90;;;4.80;;
16977;SDS011;8605;52.548;4.918;2022-12-07T19:20:27;14.97;;;4.93;;
16977;SDS011;8605;52.548;4.918;2022-12-07T19:25:30;17.80;;;6.03;;
16977;SDS011;8605;52.548;4.918;2022-12-07T19:30:34;17.23;;;5.93;;
16977;SDS011;8605;52.548;4.918;2022-12-07T19:35:37;7.90;;;2.90;;
16977;SDS011;8605;52.548;4.918;2022-12-07T19:40:40;10.10;;;5.90;;
16977;SDS011;8605;52.548;4.918;2022-12-07T19:45:44;8.70;;;3.30;;
16977;SDS011;8605;52.548;4.918;2022-12-07T19:50:47;4.97;;;2.70;;
16977;SDS011;8605;52.548;4.918;2022-12-07T19:55:50;9.33;;;4.67;;
16977;SDS011;8605;52.548;4.918;2022-12-07T20:00:54;9.23;;;3.23;;
16977;SDS011;8605;52.548;4.918;2022-12-07T20:05:57;4.63;;;1.97;;
16977;SDS011;8605;52.548;4.918;2022-12-07T20:11:00;1.90;;;1.47;;
16977;SDS011;8605;52.548;4.918;2022-12-07T20:16:26;4.07;;;1.20;;
16977;SDS011;8605;52.548;4.918;2022-12-07T20:21:29;3.77;;;2.43;;
16977;SDS011;8605;52.548;4.918;2022-12-07T20:26:32;10.53;;;3.33;;
16977;SDS011;8605;52.548;4.918;2022-12-07T20:31:37;10.80;;;4.30;;
16977;SDS011;8605;52.548;4.918;2022-12-07T20:36:40;4.97;;;1.50;;
16977;SDS011;8605;52.548;4.918;2022-12-07T20:41:43;2.33;;;1.17;;
16977;SDS011;8605;52.548;4.918;2022-12-07T20:47:05;3.53;;;1.70;;
16977;SDS011;8605;52.548;4.918;2022-12-07T20:52:08;3.30;;;1.07;;
16977;SDS011;8605;52.548;4.918;2022-12-07T20:57:11;1.63;;;0.93;;
16977;SDS011;8605;52.548;4.918;2022-12-07T21:02:15;3.10;;;1.30;;
16977;SDS011;8605;52.548;4.918;2022-12-07T21:07:18;3.00;;;1.13;;
16977;SDS011;8605;52.548;4.918;2022-12-07T21:12:21;2.13;;;1.37;;
16977;SDS011;8605;52.548;4.918;2022-12-07T21:17:25;1.13;;;0.87;;
16977;SDS011;8605;52.548;4.918;2022-12-07T21:22:28;2.57;;;1.23;;
16977;SDS011;8605;52.548;4.918;2022-12-07T21:27:32;1.97;;;1.30;;
16977;SDS011;8605;52.548;4.918;2022-12-07T21:32:36;1.10;;;1.00;;
16977;SDS011;8605;52.548;4.918;2022-12-07T21:37:39;1.40;;;1.20;;
16977;SDS011;8605;52.548;4.918;2022-12-07T21:42:42;1.40;;;0.93;;
16977;SDS011;8605;52.548;4.918;2022-12-07T21:47:47;3.00;;;1.10;;
16977;SDS011;8605;52.548;4.918;2022-12-07T21:52:50;2.67;;;1.57;;
16977;SDS011;8605;52.548;4.918;2022-12-07T21:57:53;2.07;;;1.30;;
16977;SDS011;8605;52.548;4.918;2022-12-07T22:02:57;4.20;;;1.87;;
16977;SDS011;8605;52.548;4.918;2022-12-07T22:08:00;5.90;;;2.43;;
16977;SDS011;8605;52.548;4.918;2022-12-07T22:13:03;3.63;;;1.83;;
16977;SDS011;8605;52.548;4.918;2022-12-07T22:18:07;2.03;;;1.77;;
16977;SDS011;8605;52.548;4.918;2022-12-07T22:23:10;8.03;;;2.00;;
16977;SDS011;8605;52.548;4.918;2022-12-07T22:28:13;2.97;;;1.20;;
16977;SDS011;8605;52.548;4.918;2022-12-07T22:33:17;4.60;;;2.13;;
16977;SDS011;8605;52.548;4.918;2022-12-07T22:38:20;3.63;;;1.63;;
16977;SDS011;8605;52.548;4.918;2022-12-07T22:43:23;2.90;;;1.87;;
16977;SDS011;8605;52.548;4.918;2022-12-07T22:48:28;2.40;;;1.87;;
16977;SDS011;8605;52.548;4.918;2022-12-07T22:53:30;3.40;;;2.03;;
16977;SDS011;8605;52.548;4.918;2022-12-07T22:58:33;1.80;;;1.47;;
16977;SDS011;8605;52.548;4.918;2022-12-07T23:03:38;2.90;;;2.03;;
16977;SDS011;8605;52.548;4.918;2022-12-07T23:08:41;5.13;;;1.73;;
16977;SDS011;8605;52.548;4.918;2022-12-07T23:13:44;1.40;;;1.30;;
16977;SDS011;8605;52.548;4.918;2022-12-07T23:18:48;3.00;;;1.67;;
16977;SDS011;8605;52.548;4.918;2022-12-07T23:23:51;5.50;;;1.73;;
16977;SDS011;8605;52.548;4.918;2022-12-07T23:28:53;5.13;;;1.70;;
16977;SDS011;8605;52.548;4.918;2022-12-07T23:33:59;2.70;;;1.47;;
16977;SDS011;8605;52.548;4.918;2022-12-07T23:39:02;2.07;;;1.10;;
16977;SDS011;8605;52.548;4.918;2022-12-07T23:44:05;3.30;;;0.87;;
16977;SDS011;8605;52.548;4.918;2022-12-07T23:49:10;4.57;;;1.10;;
16977;SDS011;8605;52.548;4.918;2022-12-07T23:54:14;9.30;;;1.23;;
16977;SDS011;8605;52.548;4.918;2022-12-07T23:59:17;1.70;;;0.80;;
